Time;durP1;ratioP1;P1;durP2;ratioP2;P2;SDS_P1;SDS_P2;PMS_P1;PMS_P2;Temp;Humidity;BMP_temperature;BMP_pressure;BME280_temperature;BME280_humidity;BME280_pressure;Samples;Min_cycle;Max_cycle;Signal;HPM_P1;HPM_P2
2022/01/03 00:00:36;;;;;;;7.63;3.20;;;;;;;-10.50;61.40;99108.25;5057457;28;20056;-65
2022/01/03 00:03:10;;;;;;;6.70;3.10;;;;;;;-10.22;62.06;99147.44;5058605;28;20132;-66
2022/01/03 00:05:42;;;;;;;9.70;3.22;;;;;;;-10.15;62.32;99119.16;5059637;28;20080;-65
2022/01/03 00:08:13;;;;;;;8.45;3.30;;;;;;;-9.89;62.24;99116.97;5059535;28;20052;-66
2022/01/03 00:10:43;;;;;;;8.45;3.30;;;;;;;-9.72;61.09;99126.19;5059256;28;20282;-65
2022/01/03 00:13:14;;;;;;;7.85;3.55;;;;;;;-10.07;61.07;99052.16;5059152;28;20112;-64
2022/01/03 00:15:46;;;;;;;9.10;3.70;;;;;;;-9.71;60.06;99087.44;5059140;28;20049;-65
2022/01/03 00:18:17;;;;;;;7.97;3.90;;;;;;;-9.52;59.05;99133.81;5059125;28;20355;-65
2022/01/03 00:20:57;;;;;;;9.60;3.85;;;;;;;-9.42;59.34;99138.47;5059170;28;20107;-64
2022/01/03 00:23:30;;;;;;;8.50;3.83;;;;;;;-9.50;57.15;99139.81;5058966;28;20064;-64
2022/01/03 00:26:02;;;;;;;8.32;3.45;;;;;;;-9.85;56.62;99093.56;5058604;28;20080;-65
2022/01/03 00:28:35;;;;;;;6.95;3.45;;;;;;;-9.60;57.98;99131.78;5057931;28;20052;-65
2022/01/03 00:31:08;;;;;;;8.73;3.67;;;;;;;-9.64;57.37;99132.44;5058043;28;20051;-65
2022/01/03 00:33:40;;;;;;;4.97;3.10;;;;;;;-9.57;56.51;99147.09;5055873;28;20112;-64
2022/01/03 00:36:11;;;;;;;6.30;3.45;;;;;;;-9.59;57.21;99128.44;5058075;28;20041;-65
2022/01/03 00:38:42;;;;;;;9.32;3.85;;;;;;;-9.50;57.59;99142.34;5058058;28;20048;-65
2022/01/03 00:41:13;;;;;;;10.77;3.50;;;;;;;-9.32;57.18;99142.28;5058139;28;20567;-65
2022/01/03 00:43:44;;;;;;;8.20;3.35;;;;;;;-9.42;56.68;99120.75;5058000;28;20324;-66
2022/01/03 00:46:19;;;;;;;4.18;2.90;;;;;;;-9.32;57.03;99125.44;5055027;28;20060;-65
2022/01/03 00:48:50;;;;;;;5.22;2.85;;;;;;;-9.41;55.50;99107.31;5057709;28;20053;-65
2022/01/03 00:51:21;;;;;;;5.78;2.90;;;;;;;-9.28;55.44;99145.00;5057179;28;20045;-65
2022/01/03 00:53:52;;;;;;;8.38;3.00;;;;;;;-9.57;54.93;99126.88;5057584;28;20052;-66
2022/01/03 00:56:29;;;;;;;6.60;3.30;;;;;;;-9.60;55.19;99131.78;5057485;28;20052;-65
2022/01/03 00:59:06;;;;;;;5.10;2.80;;;;;;;-9.62;55.22;99138.44;5055537;28;20084;-66
2022/01/03 01:01:44;;;;;;;7.03;3.72;;;;;;;-9.66;55.81;99146.69;5053493;28;20128;-65
2022/01/03 01:04:16;;;;;;;5.80;2.95;;;;;;;-9.69;55.48;99131.38;5057452;28;20112;-66
2022/01/03 01:06:52;;;;;;;13.23;3.85;;;;;;;-9.44;56.30;99157.75;5057442;28;20045;-65
2022/01/03 01:09:24;;;;;;;5.03;2.92;;;;;;;-9.58;55.54;99107.44;5055456;28;20100;-65
2022/01/03 01:11:58;;;;;;;7.85;3.00;;;;;;;-9.63;54.85;99111.44;5054542;28;20067;-65
2022/01/03 01:14:29;;;;;;;5.05;2.60;;;;;;;-9.89;55.63;99127.06;5056901;28;20072;-66
2022/01/03 01:17:03;;;;;;;5.18;2.85;;;;;;;-9.87;55.07;99156.66;5055112;28;20090;-66
2022/01/03 01:19:34;;;;;;;3.90;2.78;;;;;;;-10.18;55.02;99088.69;5056869;28;20591;-66
2022/01/03 01:22:05;;;;;;;8.93;3.15;;;;;;;-9.68;55.41;99143.22;5057095;28;20391;-66
2022/01/03 01:24:46;;;;;;;6.40;2.97;;;;;;;-10.07;56.14;99064.78;5053772;28;20108;-66
2022/01/03 01:30:06;;;;;;;5.00;3.20;;;;;;;-9.70;54.40;99124.59;5055584;28;20064;-65
2022/01/03 01:32:43;;;;;;;12.85;3.92;;;;;;;-10.05;54.71;99050.56;5054637;28;20048;-66
2022/01/03 01:35:15;;;;;;;6.38;3.35;;;;;;;-9.36;54.85;99156.44;5056999;28;20047;-66
2022/01/03 01:37:50;;;;;;;7.22;3.47;;;;;;;-9.24;52.62;99134.22;5058198;28;20057;-66
2022/01/03 01:40:23;;;;;;;5.63;3.50;;;;;;;-8.94;54.10;99146.47;5055042;28;20053;-66
2022/01/03 01:42:56;;;;;;;7.78;3.38;;;;;;;-8.80;54.54;99109.94;5057485;28;20077;-66
2022/01/03 01:45:28;;;;;;;7.57;3.35;;;;;;;-9.22;52.89;99028.88;5057553;28;20044;-67
2022/01/03 01:48:04;;;;;;;6.70;3.35;;;;;;;-8.63;51.80;99153.72;5057553;28;20061;-66
2022/01/03 01:50:40;;;;;;;4.90;2.72;;;;;;;-8.90;52.04;99138.22;5057438;28;20092;-67
2022/01/03 01:53:11;;;;;;;6.60;2.67;;;;;;;-8.97;51.94;99141.28;5057601;28;20096;-66
2022/01/03 01:55:49;;;;;;;8.13;2.97;;;;;;;-8.91;52.20;99146.59;5057569;28;20060;-66
2022/01/03 01:58:29;;;;;;;10.15;3.22;;;;;;;-9.32;52.67;99101.81;5057130;28;20057;-66
2022/01/03 02:01:02;;;;;;;4.97;3.30;;;;;;;-9.01;52.86;99130.16;5056958;28;20118;-66
2022/01/03 02:03:54;;;;;;;6.32;3.38;;;;;;;-8.61;53.22;99136.03;5056967;28;20053;-66
2022/01/03 02:06:31;;;;;;;6.85;3.10;;;;;;;-9.09;52.58;99100.25;5057179;28;20116;-65
2022/01/03 02:09:07;;;;;;;6.43;3.10;;;;;;;-8.99;53.07;99135.28;5057025;28;20056;-66
2022/01/03 02:11:50;;;;;;;7.85;3.08;;;;;;;-8.90;53.84;99138.22;5057060;28;20056;-65
2022/01/03 02:14:23;;;;;;;5.15;2.80;;;;;;;-9.01;52.59;99129.28;5057219;28;20064;-66
2022/01/03 02:16:55;;;;;;;8.65;3.33;;;;;;;-9.31;53.01;99104.38;5057032;28;20052;-65
2022/01/03 02:19:27;;;;;;;5.18;2.90;;;;;;;-8.94;53.54;99116.09;5056824;28;20110;-64
2022/01/03 02:21:59;;;;;;;6.43;3.00;;;;;;;-8.96;52.98;99087.31;5056952;28;20057;-65
2022/01/03 02:24:33;;;;;;;5.45;2.92;;;;;;;-9.00;52.52;99108.25;5055970;28;20053;-65
2022/01/03 02:27:04;;;;;;;8.18;3.20;;;;;;;-8.90;53.38;99102.78;5056903;28;20095;-64
2022/01/03 02:29:35;;;;;;;5.13;2.92;;;;;;;-9.76;52.11;98952.41;5056844;28;20270;-64
2022/01/03 02:32:06;;;;;;;6.70;3.22;;;;;;;-8.75;52.32;99118.59;5056801;28;20247;-66
2022/01/03 02:34:37;;;;;;;5.97;2.72;;;;;;;-9.00;52.32;99105.72;5056712;28;20087;-64
2022/01/03 02:37:10;;;;;;;5.72;3.17;;;;;;;-9.26;52.17;99113.06;5056773;28;20089;-64
2022/01/03 02:39:40;;;;;;;6.28;2.95;;;;;;;-9.30;51.24;99111.19;5055931;28;20048;-64
2022/01/03 02:42:12;;;;;;;5.65;2.83;;;;;;;-9.42;52.11;99090.41;5052840;28;20071;-64
2022/01/03 02:44:45;;;;;;;7.47;2.78;;;;;;;-9.19;52.39;99097.31;5056847;28;20053;-64
2022/01/03 02:47:24;;;;;;;7.45;3.00;;;;;;;-8.97;52.25;99105.84;5055963;28;20053;-66
2022/01/03 02:49:55;;;;;;;5.57;3.08;;;;;;;-8.90;52.72;99097.72;5056508;28;20087;-66
2022/01/03 02:52:27;;;;;;;6.35;2.75;;;;;;;-8.96;53.49;99099.97;5056622;28;20048;-66
2022/01/03 02:54:58;;;;;;;7.47;3.10;;;;;;;-9.35;51.75;99046.88;5056506;28;20132;-65
2022/01/03 02:57:35;;;;;;;4.57;2.75;;;;;;;-9.19;50.30;99083.81;5056423;28;20068;-65
2022/01/03 03:00:08;;;;;;;10.30;3.42;;;;;;;-9.21;51.08;99091.34;5056380;28;20045;-65
2022/01/03 03:02:39;;;;;;;5.10;2.85;;;;;;;-9.38;49.85;99067.00;5056642;28;20051;-64
2022/01/03 03:05:12;;;;;;;6.00;2.83;;;;;;;-9.24;50.56;99081.09;5056565;28;20088;-65
2022/01/03 03:07:45;;;;;;;6.65;2.92;;;;;;;-9.20;51.82;99071.97;5056457;28;20080;-64
2022/01/03 03:10:19;;;;;;;5.35;2.83;;;;;;;-8.83;50.78;99069.31;5056644;28;20055;-65
2022/01/03 03:12:50;;;;;;;5.80;3.30;;;;;;;-8.90;49.79;99057.22;5056594;28;20052;-66
2022/01/03 03:15:20;;;;;;;6.13;3.00;;;;;;;-8.85;50.60;99075.97;5059762;28;20056;-66
2022/01/03 03:17:51;;;;;;;7.72;3.25;;;;;;;-8.87;50.33;99047.22;5059998;28;20055;-65
2022/01/03 03:20:24;;;;;;;8.75;3.40;;;;;;;-8.39;51.82;99079.50;5060390;28;20145;-65
2022/01/03 03:22:58;;;;;;;6.65;3.25;;;;;;;-8.56;50.93;99062.00;5056585;28;20112;-65
2022/01/03 03:25:30;;;;;;;7.35;3.10;;;;;;;-8.44;49.64;99079.31;5055093;28;20048;-66
2022/01/03 03:28:02;;;;;;;15.10;4.97;;;;;;;-8.39;50.03;99072.72;5053565;28;20343;-65
2022/01/03 03:30:35;;;;;;;6.82;3.42;;;;;;;-8.59;49.90;99030.59;5059173;28;20107;-65
2022/01/03 03:33:09;;;;;;;10.75;3.90;;;;;;;-8.54;48.26;99070.47;5059135;28;20501;-66
2022/01/03 03:35:40;;;;;;;5.40;3.15;;;;;;;-8.70;49.44;99071.53;5060058;28;20081;-66
2022/01/03 03:38:13;;;;;;;7.03;3.40;;;;;;;-8.90;50.48;99031.91;5060011;28;20526;-66
2022/01/03 03:40:45;;;;;;;6.00;2.90;;;;;;;-8.61;49.84;99073.59;5054941;28;20063;-65
2022/01/03 03:43:17;;;;;;;5.38;3.03;;;;;;;-8.65;49.80;99070.88;5058353;28;20057;-65
2022/01/03 03:45:49;;;;;;;5.53;2.90;;;;;;;-9.05;47.16;99011.03;5053775;28;20174;-65
2022/01/03 03:48:21;;;;;;;5.53;3.25;;;;;;;-8.77;49.50;99063.63;5054433;28;20060;-64
2022/01/03 03:50:52;;;;;;;7.20;2.97;;;;;;;-9.26;49.24;99042.22;5053762;28;20059;-65
2022/01/03 03:53:26;;;;;;;7.65;3.30;;;;;;;-9.22;50.31;99069.38;5054569;28;20162;-65
2022/01/03 03:55:56;;;;;;;5.18;3.05;;;;;;;-9.12;50.20;99076.53;5054094;28;20142;-64
2022/01/03 03:58:27;;;;;;;7.85;3.25;;;;;;;-9.18;50.47;99066.19;5053857;28;20048;-64
2022/01/03 04:00:58;;;;;;;7.38;2.58;;;;;;;-9.26;51.12;99076.75;5054256;28;20123;-64
2022/01/03 04:03:41;;;;;;;5.80;3.00;;;;;;;-9.43;52.26;99065.94;5053845;28;20235;-66
2022/01/03 04:06:12;;;;;;;6.63;3.15;;;;;;;-9.96;52.03;98958.25;5053567;28;20140;-65
2022/01/03 04:08:45;;;;;;;4.82;2.83;;;;;;;-9.69;53.78;99070.69;5054045;28;20060;-65
2022/01/03 04:11:17;;;;;;;3.85;2.33;;;;;;;-9.84;54.14;99075.06;5055074;28;20095;-62
2022/01/03 04:13:48;;;;;;;9.18;3.55;;;;;;;-9.66;55.00;99095.25;5055408;28;20088;-65
2022/01/03 04:16:18;;;;;;;5.82;2.83;;;;;;;-9.65;55.17;99080.16;5055741;28;20044;-63
2022/01/03 04:18:49;;;;;;;7.95;3.45;;;;;;;-9.77;57.88;99087.19;5055653;28;20067;-66
2022/01/03 04:21:20;;;;;;;3.05;2.65;;;;;;;-9.85;57.36;99093.56;5054529;28;20041;-65
2022/01/03 04:23:52;;;;;;;5.72;3.35;;;;;;;-10.23;57.83;99091.00;5053393;28;20087;-66
2022/01/03 04:26:23;;;;;;;7.35;3.53;;;;;;;-10.33;58.50;99087.97;5052410;28;20045;-65
2022/01/03 04:28:54;;;;;;;7.47;3.38;;;;;;;-10.66;59.27;99047.72;5052768;28;20076;-64
2022/01/03 04:31:25;;;;;;;6.38;3.50;;;;;;;-10.63;59.89;99037.78;5054792;28;20053;-62
2022/01/03 04:33:55;;;;;;;7.35;2.83;;;;;;;-10.21;60.51;99089.41;5055785;28;20289;-65
2022/01/03 04:36:27;;;;;;;6.22;3.17;;;;;;;-10.39;59.41;99100.34;5054186;28;20087;-63
2022/01/03 04:38:59;;;;;;;5.65;2.90;;;;;;;-10.39;60.09;99100.34;5054836;28;20040;-62
2022/01/03 04:41:30;;;;;;;3.60;2.50;;;;;;;-10.51;62.87;99111.56;5053667;28;20049;-64
2022/01/03 04:44:05;;;;;;;5.05;3.30;;;;;;;-10.67;64.71;99096.47;5053984;28;20378;-65
2022/01/03 04:46:36;;;;;;;6.72;3.20;;;;;;;-10.37;65.14;99116.44;5054745;28;20059;-64
2022/01/03 04:49:08;;;;;;;8.52;3.90;;;;;;;-10.42;65.64;99099.38;5054942;28;20055;-63
2022/01/03 04:51:39;;;;;;;9.13;3.83;;;;;;;-10.14;65.87;99120.88;5055098;28;20087;-62
2022/01/03 04:54:11;;;;;;;7.28;3.72;;;;;;;-10.08;66.70;99121.16;5054881;28;20103;-63
2022/01/03 04:56:42;;;;;;;6.97;3.55;;;;;;;-10.08;66.63;99123.69;5055015;28;20051;-63
2022/01/03 04:59:13;;;;;;;4.20;2.90;;;;;;;-10.14;66.43;99108.22;5053481;28;20310;-65
2022/01/03 05:01:44;;;;;;;5.60;4.10;;;;;;;-10.24;66.95;99073.22;5053033;28;20191;-64
2022/01/03 05:04:15;;;;;;;11.30;3.75;;;;;;;-9.94;64.86;99128.50;5052814;28;20053;-64
2022/01/03 05:06:46;;;;;;;8.35;3.53;;;;;;;-9.90;65.38;99125.34;5052641;28;20045;-63
2022/01/03 05:09:18;;;;;;;8.05;3.78;;;;;;;-9.86;65.00;99133.16;5052913;28;20063;-63
2022/01/03 05:11:49;;;;;;;8.93;4.13;;;;;;;-10.48;63.02;99061.25;5053107;28;20124;-62
2022/01/03 05:14:20;;;;;;;8.93;3.85;;;;;;;-10.11;62.23;99115.94;5051898;28;20060;-65
2022/01/03 05:16:52;;;;;;;7.70;3.50;;;;;;;-9.88;62.65;99133.84;5051418;28;20100;-64
2022/01/03 05:19:23;;;;;;;3.50;2.35;;;;;;;-10.08;58.96;99131.28;5051156;28;20593;-64
2022/01/03 05:21:54;;;;;;;5.68;2.95;;;;;;;-10.70;58.03;99106.44;5050924;28;20274;-64
2022/01/03 05:24:26;;;;;;;3.55;2.60;;;;;;;-10.97;56.44;99116.88;5050889;28;20041;-63
2022/01/03 05:26:57;;;;;;;12.38;3.03;;;;;;;-11.19;57.69;99124.16;5051746;28;20080;-64
2022/01/03 05:29:29;;;;;;;6.70;2.90;;;;;;;-10.94;57.35;99139.72;5052228;28;20076;-65
2022/01/03 05:31:59;;;;;;;5.72;2.92;;;;;;;-11.08;55.88;99149.16;5052290;28;20052;-64
2022/01/03 05:34:30;;;;;;;6.68;3.08;;;;;;;-11.16;56.29;99159.63;5052195;28;20562;-65
2022/01/03 05:37:01;;;;;;;7.05;2.90;;;;;;;-11.05;57.36;99153.47;5051021;28;20053;-64
2022/01/03 05:39:34;;;;;;;4.93;2.90;;;;;;;-10.96;56.18;99153.94;5052266;28;20083;-65
2022/01/03 05:42:05;;;;;;;8.63;3.05;;;;;;;-11.08;54.48;99163.41;5052209;28;20053;-63
2022/01/03 05:44:36;;;;;;;6.90;2.97;;;;;;;-11.41;55.45;99150.78;5051989;28;20053;-64
2022/01/03 05:47:07;;;;;;;5.93;3.00;;;;;;;-11.46;56.56;99144.63;5052171;28;20075;-62
2022/01/03 05:49:37;;;;;;;5.82;3.13;;;;;;;-11.70;56.81;99133.25;5052273;28;20084;-62
2022/01/03 05:52:08;;;;;;;7.05;3.17;;;;;;;-11.60;57.14;99160.69;5051928;28;20060;-62
2022/01/03 05:54:41;;;;;;;4.53;2.70;;;;;;;-11.77;57.36;99142.16;5052368;28;20064;-63
2022/01/03 05:57:11;;;;;;;6.75;3.35;;;;;;;-11.67;57.91;99158.63;5052056;28;20053;-63
2022/01/03 05:59:42;;;;;;;4.57;2.80;;;;;;;-11.58;58.15;99174.22;5052357;28;20374;-62
2022/01/03 06:02:14;;;;;;;6.28;3.50;;;;;;;-11.52;59.14;99175.41;5050899;28;20129;-63
2022/01/03 06:04:56;;;;;;;4.60;3.17;;;;;;;-11.32;58.33;99168.91;5051827;28;20162;-63
2022/01/03 06:07:27;;;;;;;5.15;2.90;;;;;;;-11.65;56.53;99152.03;5051879;28;20067;-64
2022/01/03 06:10:00;;;;;;;5.43;3.03;;;;;;;-11.72;57.12;99156.72;5051586;28;20315;-63
2022/01/03 06:12:31;;;;;;;9.05;4.38;;;;;;;-11.92;57.13;99149.78;5051793;28;20415;-62
2022/01/03 06:15:02;;;;;;;4.88;2.88;;;;;;;-11.75;57.43;99181.75;5051410;28;20073;-63
2022/01/03 06:17:33;;;;;;;4.32;3.03;;;;;;;-11.92;58.55;99157.34;5051722;28;20055;-62
2022/01/03 06:20:03;;;;;;;6.07;2.83;;;;;;;-11.70;58.84;99183.63;5051245;28;20148;-63
2022/01/03 06:22:34;;;;;;;7.00;3.10;;;;;;;-12.18;57.84;99118.13;5051582;28;20048;-63
2022/01/03 06:25:07;;;;;;;6.75;3.00;;;;;;;-12.05;58.62;99144.88;5051717;28;20049;-63
2022/01/03 06:27:38;;;;;;;4.60;2.80;;;;;;;-11.91;58.06;99159.06;5051661;28;20371;-64
2022/01/03 06:30:12;;;;;;;6.80;3.72;;;;;;;-11.89;58.55;99192.75;5053190;28;20098;-63
2022/01/03 06:32:42;;;;;;;7.32;4.03;;;;;;;-11.86;59.67;99179.47;5053320;28;20687;-63
2022/01/03 06:35:13;;;;;;;5.05;3.38;;;;;;;-11.73;59.60;99195.31;5053287;28;20057;-62
2022/01/03 06:37:44;;;;;;;6.47;3.17;;;;;;;-11.70;59.80;99178.59;5051896;28;20052;-62
2022/01/03 06:40:16;;;;;;;5.85;3.20;;;;;;;-11.67;59.13;99188.88;5052002;28;20049;-65
2022/01/03 06:42:47;;;;;;;4.78;2.85;;;;;;;-11.70;58.35;99194.59;5052749;28;20072;-62
2022/01/03 06:45:18;;;;;;;4.85;2.83;;;;;;;-11.90;57.39;99201.13;5051976;28;20136;-63
2022/01/03 06:47:50;;;;;;;8.68;3.22;;;;;;;-12.07;57.16;99181.69;5052439;28;20112;-63
2022/01/03 06:50:21;;;;;;;5.25;3.17;;;;;;;-12.05;57.73;99201.13;5055694;28;20053;-65
2022/01/03 06:52:52;;;;;;;7.80;3.03;;;;;;;-12.20;57.58;99165.91;5055643;28;20112;-64
2022/01/03 06:55:25;;;;;;;6.93;3.38;;;;;;;-11.91;58.12;99189.28;5055242;28;20051;-61
2022/01/03 06:57:55;;;;;;;5.28;3.22;;;;;;;-12.00;57.99;99176.22;5055071;28;20059;-62
2022/01/03 07:00:26;;;;;;;4.05;2.90;;;;;;;-12.20;56.93;99150.78;5055019;28;20067;-65
2022/01/03 07:02:57;;;;;;;8.02;3.08;;;;;;;-12.03;56.97;99198.69;5054810;28;20251;-66
2022/01/03 07:05:28;;;;;;;7.55;3.42;;;;;;;-12.03;57.01;99208.75;5055090;28;20049;-63
2022/01/03 07:07:59;;;;;;;7.15;3.22;;;;;;;-12.02;57.50;99210.50;5055043;28;20083;-62
2022/01/03 07:10:31;;;;;;;9.35;3.60;;;;;;;-12.07;58.94;99211.91;5054948;28;20045;-63
2022/01/03 07:13:02;;;;;;;7.57;3.35;;;;;;;-11.91;59.83;99194.31;5054987;28;20057;-62
2022/01/03 07:21:08;;;;;;;9.30;3.70;;;;;;;-12.40;59.32;99166.44;5055153;28;20108;-62
2022/01/03 07:23:39;;;;;;;8.07;3.53;;;;;;;-12.00;60.19;99203.91;5056477;28;20396;-62
2022/01/03 07:26:12;;;;;;;6.35;3.08;;;;;;;-12.08;58.48;99212.66;5056408;28;20091;-65
2022/01/03 07:28:42;;;;;;;5.40;3.30;;;;;;;-12.14;58.81;99219.91;5056608;28;20119;-64
2022/01/03 07:31:13;;;;;;;8.38;3.50;;;;;;;-12.36;57.91;99208.59;5056558;28;20330;-63
2022/01/03 07:33:44;;;;;;;8.88;3.20;;;;;;;-12.38;58.24;99215.19;5055055;28;20080;-64
2022/01/03 07:36:15;;;;;;;5.00;3.22;;;;;;;-12.38;58.87;99220.22;5056039;28;20049;-62
2022/01/03 07:38:46;;;;;;;7.93;3.05;;;;;;;-12.35;58.60;99215.38;5056650;28;20052;-62
2022/01/03 07:41:19;;;;;;;6.07;3.33;;;;;;;-12.42;58.56;99189.00;5056820;28;20335;-64
2022/01/03 07:43:50;;;;;;;6.80;3.65;;;;;;;-12.31;58.45;99217.28;5056587;28;20391;-61
2022/01/03 07:46:21;;;;;;;7.40;3.35;;;;;;;-12.25;58.40;99206.72;5054559;28;20115;-65
2022/01/03 07:48:52;;;;;;;6.53;3.05;;;;;;;-12.24;58.33;99213.47;5056443;28;20057;-63
2022/01/03 07:51:22;;;;;;;4.47;2.80;;;;;;;-12.21;58.49;99204.41;5056097;28;20052;-64
2022/01/03 07:53:53;;;;;;;7.63;2.88;;;;;;;-12.29;58.21;99220.75;5056142;28;20059;-61
2022/01/03 07:56:28;;;;;;;3.28;2.30;;;;;;;-12.58;59.02;99185.50;5056154;28;20041;-62
2022/01/03 07:58:59;;;;;;;9.88;3.20;;;;;;;-12.42;59.97;99213.28;5055480;28;20091;-62
2022/01/03 08:01:29;;;;;;;7.53;3.13;;;;;;;-13.29;59.54;99071.69;5055732;28;20063;-65
2022/01/03 08:04:00;;;;;;;5.45;2.80;;;;;;;-12.35;60.61;99224.56;5055492;28;20061;-63
2022/01/03 08:06:47;;;;;;;2.95;2.40;;;;;;;-12.57;58.46;99192.28;5055913;28;20081;-62
2022/01/03 08:09:17;;;;;;;7.93;3.15;;;;;;;-12.35;59.68;99225.47;5056014;28;20053;-63
2022/01/03 08:11:50;;;;;;;6.80;3.50;;;;;;;-12.37;58.38;99211.91;5055929;28;20101;-64
2022/01/03 08:14:21;;;;;;;5.70;3.00;;;;;;;-12.38;58.10;99216.09;5055818;28;20076;-62
2022/01/03 08:16:52;;;;;;;12.70;3.40;;;;;;;-12.60;57.56;99181.25;5055972;28;20059;-64
2022/01/03 08:19:22;;;;;;;3.83;2.47;;;;;;;-12.63;57.27;99171.03;5055400;28;20087;-66
2022/01/03 08:21:53;;;;;;;4.60;2.75;;;;;;;-12.45;57.17;99213.13;5054797;28;20091;-62
2022/01/03 08:24:24;;;;;;;3.17;2.72;;;;;;;-12.36;57.75;99232.91;5054430;28;20112;-63
2022/01/03 08:26:56;;;;;;;9.50;3.40;;;;;;;-12.39;58.49;99243.66;5055333;28;20116;-64
2022/01/03 08:29:27;;;;;;;7.07;3.15;;;;;;;-12.43;58.36;99217.47;5055250;28;20339;-62
2022/01/03 08:31:57;;;;;;;10.73;3.03;;;;;;;-12.44;58.28;99240.03;5055284;28;20067;-65
2022/01/03 08:34:28;;;;;;;4.38;2.70;;;;;;;-12.50;58.01;99234.63;5055451;28;20123;-63
2022/01/03 08:37:00;;;;;;;4.43;2.42;;;;;;;-12.35;58.67;99225.47;5055480;28;20099;-63
2022/01/03 08:39:31;;;;;;;9.15;3.42;;;;;;;-12.36;57.95;99242.97;5055306;28;20125;-63
2022/01/03 08:42:03;;;;;;;6.00;2.83;;;;;;;-12.34;58.21;99242.28;5055544;28;20062;-62
2022/01/03 08:44:34;;;;;;;3.80;2.40;;;;;;;-12.37;59.17;99239.59;5053940;28;20057;-62
2022/01/03 08:47:05;;;;;;;3.78;2.50;;;;;;;-12.61;59.47;99204.66;5053031;28;20053;-62
2022/01/03 08:49:36;;;;;;;3.80;2.47;;;;;;;-12.43;58.95;99241.75;5052860;28;20119;-64
2022/01/03 08:52:07;;;;;;;9.95;2.83;;;;;;;-12.48;59.83;99244.03;5052254;28;20329;-65
2022/01/03 08:54:38;;;;;;;5.60;3.00;;;;;;;-12.57;59.87;99227.53;5052312;28;20498;-65
2022/01/03 08:57:10;;;;;;;8.60;4.00;;;;;;;-12.46;59.88;99251.63;5051437;28;20103;-61
2022/01/03 08:59:41;;;;;;;7.45;2.95;;;;;;;-12.49;60.31;99241.41;5051935;28;20049;-63
2022/01/03 09:02:12;;;;;;;4.15;2.83;;;;;;;-12.39;59.67;99258.78;5053001;28;20116;-63
2022/01/03 09:04:43;;;;;;;9.38;2.90;;;;;;;-12.73;59.53;99196.41;5050877;28;20062;-62
2022/01/03 09:07:15;;;;;;;8.30;3.33;;;;;;;-12.35;59.15;99249.72;5052487;28;20057;-64
2022/01/03 09:09:45;;;;;;;2.50;2.30;;;;;;;-12.48;59.41;99249.06;5054044;28;20873;-63
2022/01/03 09:12:18;;;;;;;3.90;2.20;;;;;;;-12.55;59.03;99246.06;5054326;28;20075;-64
2022/01/03 09:14:49;;;;;;;5.03;2.50;;;;;;;-12.72;58.45;99218.28;5054227;28;20049;-63
2022/01/03 09:17:20;;;;;;;3.00;2.35;;;;;;;-12.66;57.96;99240.41;4999543;28;20068;-62
2022/01/03 09:19:50;;;;;;;4.22;2.22;;;;;;;-12.62;58.66;99255.78;5071556;28;20123;-64
2022/01/03 09:22:26;;;;;;;5.43;2.83;;;;;;;-12.60;58.44;99249.19;5074207;28;20059;-64
2022/01/03 09:28:49;;;;;;;5.78;2.83;;;;;;;-12.61;57.84;99242.41;5074389;28;20053;-64
2022/01/03 09:30:45;;;;;;;3.58;2.28;;;;;;;-12.65;58.19;99245.53;5074190;28;20075;-62
2022/01/03 09:33:16;;;;;;;3.95;2.75;;;;;;;-12.75;58.23;99248.31;5074281;28;20040;-62
2022/01/03 09:35:52;;;;;;;2.55;2.13;;;;;;;-12.99;57.67;99187.34;5074411;28;20052;-64
2022/01/03 09:38:23;;;;;;;6.25;2.53;;;;;;;-12.81;57.48;99232.84;5074033;28;20091;-65
2022/01/03 09:40:56;;;;;;;3.15;2.30;;;;;;;-12.73;57.21;99236.66;5074249;28;20048;-62
2022/01/03 09:43:30;;;;;;;6.40;2.70;;;;;;;-13.19;57.35;99168.56;5073714;28;20076;-62
2022/01/03 09:46:04;;;;;;;4.47;2.65;;;;;;;-12.65;57.10;99238.00;5074147;28;20049;-64
2022/01/03 09:48:37;;;;;;;1.90;1.80;;;;;;;-12.64;56.82;99242.25;5072490;28;20064;-61
2022/01/03 09:51:08;;;;;;;5.25;2.75;;;;;;;-12.69;57.92;99233.56;5073775;28;20079;-63
2022/01/03 09:53:41;;;;;;;2.67;2.47;;;;;;;-12.70;57.21;99235.97;5073875;28;20131;-63
2022/01/03 09:56:12;;;;;;;5.40;2.60;;;;;;;-12.69;58.16;99238.59;5073709;28;20118;-62
2022/01/03 09:58:45;;;;;;;5.15;2.60;;;;;;;-12.75;57.75;99248.31;5073686;28;20107;-63
2022/01/03 10:01:16;;;;;;;4.15;2.83;;;;;;;-13.07;57.92;99194.44;5073608;28;20052;-62
2022/01/03 10:03:48;;;;;;;2.88;2.45;;;;;;;-12.80;58.92;99237.09;5073876;28;20106;-62
2022/01/03 10:06:21;;;;;;;3.03;2.38;;;;;;;-12.87;58.57;99217.41;5073839;28;20064;-62
2022/01/03 10:08:52;;;;;;;3.42;2.42;;;;;;;-12.87;58.49;99233.34;5073389;28;20052;-63
2022/01/03 10:11:24;;;;;;;4.82;2.58;;;;;;;-12.93;58.43;99217.00;5073785;28;20074;-63
2022/01/03 10:13:56;;;;;;;3.25;2.47;;;;;;;-12.80;58.50;99244.66;5073901;28;20032;-62
2022/01/03 10:16:28;;;;;;;3.63;2.78;;;;;;;-12.75;58.93;99240.75;5073580;28;20040;-62
2022/01/03 10:19:15;;;;;;;7.22;4.07;;;;;;;-12.86;59.44;99229.19;5073311;28;20445;-62
2022/01/03 10:21:48;;;;;;;3.20;2.45;;;;;;;-12.76;59.70;99241.53;5073260;28;20310;-64
2022/01/03 10:24:21;;;;;;;4.78;2.95;;;;;;;-12.78;58.79;99240.56;5072799;28;20170;-65
2022/01/03 10:26:56;;;;;;;5.22;3.20;;;;;;;-12.80;59.58;99219.50;5073399;28;20040;-62
2022/01/03 10:29:31;;;;;;;5.47;3.00;;;;;;;-12.82;59.39;99241.16;5073264;28;20059;-62
2022/01/03 10:32:05;;;;;;;6.55;2.42;;;;;;;-12.85;60.24;99233.44;5073366;28;20335;-62
2022/01/03 10:34:36;;;;;;;5.68;2.97;;;;;;;-13.35;60.25;99165.94;5073458;28;20314;-63
2022/01/03 10:37:13;;;;;;;3.20;2.63;;;;;;;-12.84;60.29;99232.66;5073242;28;20305;-63
2022/01/03 10:39:44;;;;;;;6.40;2.97;;;;;;;-12.81;60.35;99232.84;5073161;28;20040;-62
2022/01/03 10:42:16;;;;;;;4.80;2.92;;;;;;;-12.73;60.47;99231.63;5073256;28;20074;-63
2022/01/03 10:44:49;;;;;;;5.28;3.28;;;;;;;-13.05;60.18;99190.38;5073402;28;20076;-64
2022/01/03 10:47:33;;;;;;;4.13;2.53;;;;;;;-12.74;60.57;99229.03;5073281;28;20116;-64
2022/01/03 10:50:16;;;;;;;7.45;2.95;;;;;;;-12.78;60.60;99224.59;5072706;28;20068;-64
2022/01/03 10:52:48;;;;;;;5.43;2.78;;;;;;;-12.70;61.13;99241.00;5073063;28;20064;-64
2022/01/03 10:55:21;;;;;;;6.28;2.75;;;;;;;-12.75;61.29;99243.28;5073198;28;20053;-62
2022/01/03 10:57:55;;;;;;;5.05;2.80;;;;;;;-13.58;61.83;99111.81;5073047;28;20054;-62
2022/01/03 11:00:30;;;;;;;4.72;2.67;;;;;;;-12.82;61.64;99233.63;5072064;28;20044;-64
2022/01/03 11:03:29;;;;;;;6.15;3.42;;;;;;;-12.82;61.40;99221.03;5073245;28;20117;-63
2022/01/03 11:06:13;;;;;;;4.25;2.50;;;;;;;-13.00;61.95;99195.69;5071620;28;20291;-62
2022/01/03 11:11:38;;;;;;;3.13;2.85;;;;;;;-12.82;62.00;99223.56;5088781;28;20388;-63
2022/01/03 11:14:10;;;;;;;8.85;2.78;;;;;;;-12.73;62.51;99234.16;5081895;28;20048;-65
2022/01/03 11:16:42;;;;;;;3.85;2.72;;;;;;;-12.69;62.61;99238.59;5082324;28;20074;-64
2022/01/03 11:19:13;;;;;;;6.40;2.75;;;;;;;-12.64;62.94;99227.16;5082227;28;20370;-64
2022/01/03 11:21:44;;;;;;;4.50;2.75;;;;;;;-12.65;62.70;99232.97;5080108;28;20079;-63
2022/01/03 11:24:16;;;;;;;3.88;2.50;;;;;;;-12.72;63.38;99223.31;5081108;28;20378;-65
2022/01/03 11:26:48;;;;;;;3.90;2.47;;;;;;;-13.10;63.46;99128.03;5081922;28;20064;-61
2022/01/03 11:29:20;;;;;;;9.30;2.78;;;;;;;-12.95;63.19;99173.31;5078466;28;20056;-62
2022/01/03 11:31:54;;;;;;;8.30;3.25;;;;;;;-12.92;63.54;99193.63;5080961;28;20048;-62
2022/01/03 11:34:26;;;;;;;2.92;2.35;;;;;;;-12.81;64.41;99217.75;5083903;28;20052;-62
2022/01/03 11:37:00;;;;;;;5.32;2.60;;;;;;;-13.04;64.27;99192.09;5086026;28;20052;-62
2022/01/03 11:39:34;;;;;;;5.63;2.88;;;;;;;-12.86;64.78;99188.94;5085666;28;20048;-64
2022/01/03 11:42:05;;;;;;;7.22;3.00;;;;;;;-12.70;64.57;99216.75;5085657;28;20097;-63
2022/01/03 11:44:37;;;;;;;5.28;2.95;;;;;;;-12.60;64.99;99229.06;5081716;28;20059;-62
2022/01/03 11:47:10;;;;;;;6.80;3.13;;;;;;;-12.70;64.53;99215.84;5085705;28;20072;-62
2022/01/03 11:49:41;;;;;;;5.53;2.75;;;;;;;-12.60;64.87;99234.09;5085547;28;20055;-65
2022/01/03 11:52:14;;;;;;;5.78;2.80;;;;;;;-12.52;65.11;99226.13;5085684;28;20052;-64
2022/01/03 11:54:46;;;;;;;3.25;2.53;;;;;;;-12.64;65.75;99227.16;5085748;28;20048;-62
2022/01/03 11:57:22;;;;;;;6.25;3.15;;;;;;;-12.84;66.42;99212.53;5085874;28;20099;-64
2022/01/03 12:05:55;;;;;;;3.38;2.53;;;;;;;-12.80;67.74;99214.47;5085771;28;20266;-62
2022/01/03 12:08:29;;;;;;;4.95;2.47;;;;;;;-12.72;68.00;99228.34;5083166;28;20058;-63
2022/01/03 12:11:00;;;;;;;3.08;2.45;;;;;;;-12.64;68.74;99242.25;5085061;28;20079;-63